sensor_id;sensor_type;location;lat;lon;timestamp;pressure;altitude;pressure_sealevel;temperature;humidity
73105;BME280;61296;50.526;30.792;2023-03-02T00:12:04;99896.66;;;-1.67;76.36
73105;BME280;61296;50.526;30.792;2023-03-02T00:27:25;99944.47;;;-1.43;77.05
73105;BME280;61296;50.526;30.792;2023-03-02T00:42:47;99893.00;;;-1.76;77.34
73105;BME280;61296;50.526;30.792;2023-03-02T00:58:10;99898.50;;;-1.86;78.02
73105;BME280;61296;50.526;30.792;2023-03-02T01:13:36;99993.94;;;-1.29;78.37
73105;BME280;61296;50.526;30.792;2023-03-02T01:28:55;99825.03;;;-2.26;78.03
73105;BME280;61296;50.526;30.792;2023-03-02T02:00:02;99915.19;;;-1.84;79.15
73105;BME280;61296;50.526;30.792;2023-03-02T02:15:31;99942.91;;;-1.79;79.68
73105;BME280;61296;50.526;30.792;2023-03-02T02:31:01;99945.22;;;-1.96;79.71
73105;BME280;61296;50.526;30.792;2023-03-02T02:46:23;99869.53;;;-2.34;79.64
73105;BME280;61296;50.526;30.792;2023-03-02T03:01:45;99837.09;;;-2.52;79.41
73105;BME280;61296;50.526;30.792;2023-03-02T03:17:05;99828.03;;;-2.67;79.83
73105;BME280;61296;50.526;30.792;2023-03-02T03:32:33;99939.63;;;-2.05;80.64
73105;BME280;61296;50.526;30.792;2023-03-02T03:47:53;99864.81;;;-2.52;80.26
73105;BME280;61296;50.526;30.792;2023-03-02T04:03:14;99904.97;;;-2.16;80.25
73105;BME280;61296;50.526;30.792;2023-03-02T04:18:33;99838.75;;;-2.56;80.25
73105;BME280;61296;50.526;30.792;2023-03-02T04:33:53;99927.44;;;-1.97;80.74
73105;BME280;61296;50.526;30.792;2023-03-02T04:49:14;99911.66;;;-2.14;81.20
73105;BME280;61296;50.526;30.792;2023-03-02T05:04:34;99942.97;;;-1.89;82.07
73105;BME280;61296;50.526;30.792;2023-03-02T05:19:53;99921.03;;;-1.48;80.21
73105;BME280;61296;50.526;30.792;2023-03-02T05:35:13;99883.53;;;-1.02;77.59
73105;BME280;61296;50.526;30.792;2023-03-02T05:50:33;99984.81;;;0.14;75.33
73105;BME280;61296;50.526;30.792;2023-03-02T06:05:52;99952.78;;;0.21;74.00
73105;BME280;61296;50.526;30.792;2023-03-02T06:21:11;100008.75;;;0.85;73.37
73105;BME280;61296;50.526;30.792;2023-03-02T06:36:31;99929.78;;;0.92;71.33
73105;BME280;61296;50.526;30.792;2023-03-02T06:51:50;99903.03;;;0.91;71.14
73105;BME280;61296;50.526;30.792;2023-03-02T07:07:10;99996.53;;;1.79;70.33
73105;BME280;61296;50.526;30.792;2023-03-02T07:22:30;99845.81;;;1.42;68.10
73105;BME280;61296;50.526;30.792;2023-03-02T07:37:51;99978.50;;;2.42;67.88
73105;BME280;61296;50.526;30.792;2023-03-02T07:53:10;99843.47;;;1.94;66.31
73105;BME280;61296;50.526;30.792;2023-03-02T08:08:31;99845.28;;;2.29;65.31
73105;BME280;61296;50.526;30.792;2023-03-02T08:23:53;99873.38;;;2.73;64.12
73105;BME280;61296;50.526;30.792;2023-03-02T08:52:10;99904.16;;;3.08;62.44
73105;BME280;61296;50.526;30.792;2023-03-02T09:07:33;99899.34;;;2.97;63.26
73105;BME280;61296;50.526;30.792;2023-03-02T09:22:52;99928.22;;;3.50;61.80
73105;BME280;61296;50.526;30.792;2023-03-02T09:38:11;99950.16;;;3.88;61.43
73105;BME280;61296;50.526;30.792;2023-03-02T09:53:39;99870.94;;;3.63;60.83
73105;BME280;61296;50.526;30.792;2023-03-02T10:09:01;99866.75;;;4.00;60.30
73105;BME280;61296;50.526;30.792;2023-03-02T10:24:50;99935.56;;;4.74;57.17
73105;BME280;61296;50.526;30.792;2023-03-02T10:40:40;99932.25;;;4.98;56.18
73105;BME280;61296;50.526;30.792;2023-03-02T10:55:59;99854.75;;;4.78;56.08
73105;BME280;61296;50.526;30.792;2023-03-02T11:11:23;99858.50;;;5.24;54.68
73105;BME280;61296;50.526;30.792;2023-03-02T11:26:52;99877.56;;;5.53;53.89
73105;BME280;61296;50.526;30.792;2023-03-02T11:42:33;99839.88;;;5.46;52.53
73105;BME280;61296;50.526;30.792;2023-03-02T11:58:01;99851.63;;;5.80;52.49
73105;BME280;61296;50.526;30.792;2023-03-02T12:13:27;99806.63;;;5.86;51.77
73105;BME280;61296;50.526;30.792;2023-03-02T12:29:06;99865.88;;;5.86;52.05
73105;BME280;61296;50.526;30.792;2023-03-02T13:34:28;99700.41;;;5.03;48.68
73105;BME280;61296;50.526;30.792;2023-03-02T13:49:50;99786.63;;;5.61;49.21
73105;BME280;61296;50.526;30.792;2023-03-02T14:05:21;99784.28;;;5.72;49.42
73105;BME280;61296;50.526;30.792;2023-03-02T14:20:40;99742.00;;;5.33;48.10
73105;BME280;61296;50.526;30.792;2023-03-02T14:35:59;99747.72;;;5.52;48.78
73105;BME280;61296;50.526;30.792;2023-03-02T14:51:27;99694.66;;;5.16;49.58
73105;BME280;61296;50.526;30.792;2023-03-02T15:06:47;99754.38;;;5.63;48.82
73105;BME280;61296;50.526;30.792;2023-03-02T15:22:06;99720.31;;;5.15;50.20
73105;BME280;61296;50.526;30.792;2023-03-02T15:37:25;99661.94;;;4.62;51.37
73105;BME280;61296;50.526;30.792;2023-03-02T15:52:44;99748.66;;;5.02;52.00
73105;BME280;61296;50.526;30.792;2023-03-02T16:08:03;99728.75;;;4.39;53.38
73105;BME280;61296;50.526;30.792;2023-03-02T16:23:22;99724.34;;;3.88;54.88
73105;BME280;61296;50.526;30.792;2023-03-02T16:38:41;99712.94;;;3.39;57.07
73105;BME280;61296;50.526;30.792;2023-03-02T16:54:01;99706.44;;;2.97;60.25
73105;BME280;61296;50.526;30.792;2023-03-02T17:09:20;99786.97;;;2.84;64.80
73105;BME280;61296;50.526;30.792;2023-03-02T17:24:39;99802.53;;;2.44;69.65
73105;BME280;61296;50.526;30.792;2023-03-02T17:39:59;99787.72;;;2.10;72.33
73105;BME280;61296;50.526;30.792;2023-03-02T17:55:19;99744.72;;;1.64;73.01
73105;BME280;61296;50.526;30.792;2023-03-02T18:10:38;99746.34;;;1.42;74.18
73105;BME280;61296;50.526;30.792;2023-03-02T18:25:57;99745.97;;;1.13;75.19
73105;BME280;61296;50.526;30.792;2023-03-02T18:41:16;99690.69;;;0.69;76.71
73105;BME280;61296;50.526;30.792;2023-03-02T18:56:35;99699.19;;;0.40;77.47
73105;BME280;61296;50.526;30.792;2023-03-02T19:11:57;99772.72;;;0.56;78.67
73105;BME280;61296;50.526;30.792;2023-03-02T19:27:16;99778.53;;;0.49;78.95
73105;BME280;61296;50.526;30.792;2023-03-02T19:42:35;99775.84;;;0.36;79.05
73105;BME280;61296;50.526;30.792;2023-03-02T19:57:57;99751.19;;;0.10;79.99
73105;BME280;61296;50.526;30.792;2023-03-02T21:03:07;99737.69;;;-0.18;82.02
73105;BME280;61296;50.526;30.792;2023-03-02T22:25:33;99679.41;;;-0.24;85.08
73105;BME280;61296;50.526;30.792;2023-03-02T22:40:52;99648.97;;;-0.16;84.12
73105;BME280;61296;50.526;30.792;2023-03-02T22:56:36;99644.25;;;0.04;83.54
73105;BME280;61296;50.526;30.792;2023-03-02T23:11:59;99615.41;;;-0.01;83.58
73105;BME280;61296;50.526;30.792;2023-03-02T23:27:19;99628.66;;;0.37;83.08
73105;BME280;61296;50.526;30.792;2023-03-02T23:42:38;99556.13;;;0.03;82.63
73105;BME280;61296;50.526;30.792;2023-03-02T23:57:57;99564.38;;;0.20;82.91
